Athens, LA

10:48 AM CDT on May 06, 2015 (GMT -0500)
RAWS | | Change Station
CLOSE
Current Station
Personal Weather Station
Location: Homer, LA
Elevation: 229 ft
Nearby Weather Stations

Elev 229 ft 32.80 °N, 93.07 °W | Updated 42 minutes ago

Clear
Clear
77 °F
Feels Like 79 °F
N
9
Wind Variable Wind from SE
Gusts 14.0 mph

Today
High -- | Low -- °F
--% Chance of Precip.
Yesterday
High -- | Low -- °F
Precip. -- in
6:20 AM 7:57 PM
Waning Gibbous, 93% visible
Pressure 30.07 in
Visibility 10.0 miles
Clouds Scattered Clouds 2300 ft
Heat Index 79 °F
Dew Point 66 °F
Humidity 69%
Rainfall in
Snow Depth Not available.
UV 6 out of 12
Pollen 7.60 out of 12
Air Quality Not available.
Flu Activity Sporadic
METAR KMNE 061535Z AUTO 16006KT 130V190 10SM SCT023 25/17 A3007 RMK AO2 T02490171

More Conditions Fewer Conditions

Pressure 30.07 in
Visibility 10.0 miles
Clouds Scattered Clouds 2300 ft
Heat Index 79 °F
Dew Point 66 °F
Humidity 69%
Rainfall in
Snow Depth Not available.
UV 6 out of 12
Pollen 7.60 out of 12
Air Quality Not available.
Flu Activity Sporadic
METAR KMNE 061535Z AUTO 16006KT 130V190 10SM SCT023 25/17 A3007 RMK AO2 T02490171

More Conditions Fewer Conditions

10-Day Weather Forecast

Almanac

Astronomy

May. 06, 2015 Rise Set
Actual Time
Civil Twilight
Nautical Twilight
Astronomical Twilight
Moon
Length of Visible Light
Length of Day
Tomorrow will be .
, % of the Moon is Illuminated

Today's Extremes

State Highs State Lows

Community

WunderPhotos

Upload Photos

1,818,938 photos uploaded!

WunderBlogs® & News

Nearby

Air Quality

  Air Quality AQ Index Pollutant
Not available.

Snow Depth

Station Depth Elevation

Earthquake Activity

City Distance Mag. Time & Date
Minimum magnitude displayed is 2.5.

Coastal Water Temperatures

Place Temperature

Stations

Nearby Weather Stations

Station Location Temp. Windchill Dew Point Humidity Wind Precip. Elev Updated Type